Time;durP1;ratioP1;P1;durP2;ratioP2;P2;SDS_P1;SDS_P2;PMS_P1;PMS_P2;Temp;Humidity;BMP_temperature;BMP_pressure;BME280_temperature;BME280_humidity;BME280_pressure;Samples;Min_cycle;Max_cycle;Signal;HPM_P1;HPM_P2
2022/11/21 00:00:08;;;;;;;31.27;19.92;;;;;;;;;;6258355;22;20077;-82
2022/11/21 00:02:34;;;;;;;32.60;19.10;;;;;;;;;;6258513;22;20004;-82
2022/11/21 00:05:00;;;;;;;37.83;18.88;;;;;;;;;;6258989;22;20023;-82
2022/11/21 00:07:26;;;;;;;33.70;18.88;;;;;;;;;;6286484;22;20004;-81
2022/11/21 00:09:52;;;;;;;34.05;18.67;;;;;;;;;;6285307;22;20455;-82
2022/11/21 00:12:18;;;;;;;31.95;19.88;;;;;;;;;;6286626;22;20019;-81
2022/11/21 00:14:44;;;;;;;30.45;18.60;;;;;;;;;;6286228;22;20023;-81
2022/11/21 00:17:10;;;;;;;28.90;16.75;;;;;;;;;;6285354;22;20003;-82
2022/11/21 00:19:36;;;;;;;33.33;17.58;;;;;;;;;;6284823;22;20008;-83
2022/11/21 00:22:02;;;;;;;37.28;19.23;;;;;;;;;;6285714;22;20056;-81
2022/11/21 00:24:28;;;;;;;32.75;19.38;;;;;;;;;;6285432;22;20003;-82
2022/11/21 00:26:55;;;;;;;34.10;19.23;;;;;;;;;;6258485;22;20050;-81
2022/11/21 00:29:21;;;;;;;31.00;17.55;;;;;;;;;;6258339;22;20000;-82
2022/11/21 00:31:47;;;;;;;33.50;18.30;;;;;;;;;;6258805;22;19999;-82
2022/11/21 00:34:14;;;;;;;33.08;17.88;;;;;;;;;;6285610;22;20178;-81
2022/11/21 00:36:40;;;;;;;34.35;18.52;;;;;;;;;;6286787;22;20000;-82
2022/11/21 00:39:06;;;;;;;33.35;19.75;;;;;;;;;;6258601;22;20011;-82
2022/11/21 00:41:32;;;;;;;31.75;17.38;;;;;;;;;;6285996;22;20014;-82
2022/11/21 00:43:58;;;;;;;33.72;17.13;;;;;;;;;;6286533;22;19996;-83
2022/11/21 00:46:24;;;;;;;32.45;18.85;;;;;;;;;;6259710;22;20018;-83
2022/11/21 00:48:50;;;;;;;32.35;18.17;;;;;;;;;;6259564;22;20068;-82
2022/11/21 00:51:16;;;;;;;29.42;17.52;;;;;;;;;;6260597;22;20000;-82
2022/11/21 00:53:42;;;;;;;33.42;17.98;;;;;;;;;;6258969;22;20011;-82
2022/11/21 00:56:09;;;;;;;27.33;16.00;;;;;;;;;;6258788;22;20355;-82
2022/11/21 00:58:35;;;;;;;34.90;18.40;;;;;;;;;;6286238;22;20030;-82
2022/11/21 01:01:04;;;;;;;31.08;17.40;;;;;;;;;;6258692;22;20000;-81
2022/11/21 01:03:31;;;;;;;29.20;16.35;;;;;;;;;;6286375;22;20000;-82
2022/11/21 01:06:01;;;;;;;28.75;16.35;;;;;;;;;;6286101;22;20004;-83
2022/11/21 01:08:27;;;;;;;35.03;18.10;;;;;;;;;;6258698;22;20072;-82
2022/11/21 01:10:53;;;;;;;30.02;16.08;;;;;;;;;;6285487;22;20027;-80
2022/11/21 01:13:19;;;;;;;29.27;15.40;;;;;;;;;;6285056;22;20337;-81
2022/11/21 01:15:45;;;;;;;28.52;15.82;;;;;;;;;;6286265;22;20075;-80
2022/11/21 01:18:11;;;;;;;29.27;16.45;;;;;;;;;;6285896;22;20019;-82
2022/11/21 01:20:40;;;;;;;30.92;16.85;;;;;;;;;;6286604;22;20071;-85
2022/11/21 01:23:06;;;;;;;29.90;16.17;;;;;;;;;;6287097;22;20003;-82
2022/11/21 01:25:36;;;;;;;34.88;17.92;;;;;;;;;;6286888;22;20428;-82
2022/11/21 01:28:02;;;;;;;32.47;17.25;;;;;;;;;;6258180;22;20008;-82
2022/11/21 01:30:28;;;;;;;30.38;16.10;;;;;;;;;;6257942;22;20004;-81
2022/11/21 01:32:54;;;;;;;33.20;17.90;;;;;;;;;;6259030;22;20042;-81
2022/11/21 01:35:20;;;;;;;28.80;16.63;;;;;;;;;;6286729;22;20000;-82
2022/11/21 01:37:47;;;;;;;32.40;16.27;;;;;;;;;;6286366;22;20006;-83
2022/11/21 01:40:13;;;;;;;32.08;17.23;;;;;;;;;;6286552;22;20000;-82
2022/11/21 01:42:54;;;;;;;34.05;17.35;;;;;;;;;;6259693;22;20015;-81
2022/11/21 01:45:39;;;;;;;29.92;16.38;;;;;;;;;;6259224;22;20011;-82
2022/11/21 01:48:05;;;;;;;33.05;16.75;;;;;;;;;;6286392;22;20061;-81
2022/11/21 01:50:31;;;;;;;31.00;16.25;;;;;;;;;;6259147;22;20008;-82
2022/11/21 01:52:58;;;;;;;29.48;16.90;;;;;;;;;;6261038;22;20493;-81
2022/11/21 01:55:24;;;;;;;30.65;17.77;;;;;;;;;;6287912;22;20537;-80
2022/11/21 01:57:50;;;;;;;35.42;18.00;;;;;;;;;;6291606;22;20011;-81
2022/11/21 02:00:27;;;;;;;29.75;16.27;;;;;;;;;;6266658;22;20014;-81
2022/11/21 02:02:55;;;;;;;32.22;16.60;;;;;;;;;;6294002;22;20424;-80
2022/11/21 02:05:24;;;;;;;31.85;17.42;;;;;;;;;;6267329;22;20000;-80
2022/11/21 02:07:52;;;;;;;26.23;15.77;;;;;;;;;;6294364;22;20047;-80
2022/11/21 02:10:18;;;;;;;27.55;15.85;;;;;;;;;;6262937;22;20089;-83
2022/11/21 02:12:47;;;;;;;28.15;18.23;;;;;;;;;;6260793;22;20095;-82
2022/11/21 02:15:13;;;;;;;31.25;17.63;;;;;;;;;;6260704;22;20050;-82
2022/11/21 02:17:39;;;;;;;29.15;16.75;;;;;;;;;;6260782;22;20029;-82
2022/11/21 02:20:06;;;;;;;32.70;16.52;;;;;;;;;;6260884;22;20003;-81
2022/11/21 02:22:45;;;;;;;31.33;16.58;;;;;;;;;;6287994;22;20007;-82
2022/11/21 02:25:14;;;;;;;25.48;15.90;;;;;;;;;;6260491;22;20007;-82
2022/11/21 02:27:40;;;;;;;28.17;16.00;;;;;;;;;;6287919;22;20026;-81
2022/11/21 02:30:07;;;;;;;29.10;15.80;;;;;;;;;;6286671;22;20229;-82
2022/11/21 02:32:34;;;;;;;26.90;16.20;;;;;;;;;;6254179;22;20029;-82
2022/11/21 02:35:00;;;;;;;26.25;15.48;;;;;;;;;;6284608;22;20086;-80
2022/11/21 02:37:26;;;;;;;29.23;16.50;;;;;;;;;;6266926;22;20011;-80
2022/11/21 02:39:53;;;;;;;28.20;16.23;;;;;;;;;;6293329;22;20004;-80
2022/11/21 02:42:34;;;;;;;27.23;15.77;;;;;;;;;;6292109;22;20432;-80
2022/11/21 02:45:08;;;;;;;30.38;16.20;;;;;;;;;;6263544;22;20072;-82
2022/11/21 02:47:35;;;;;;;28.85;14.02;;;;;;;;;;6261161;22;20083;-82
2022/11/21 02:50:10;;;;;;;30.83;15.40;;;;;;;;;;6260653;22;20044;-82
2022/11/21 02:52:36;;;;;;;25.20;15.38;;;;;;;;;;6287514;22;20008;-81
2022/11/21 02:55:02;;;;;;;28.83;15.90;;;;;;;;;;6287319;22;20493;-82
2022/11/21 02:57:28;;;;;;;27.70;15.82;;;;;;;;;;6287697;22;20000;-80
2022/11/21 02:59:54;;;;;;;27.90;15.75;;;;;;;;;;6287576;22;20004;-82
2022/11/21 03:02:20;;;;;;;29.95;15.93;;;;;;;;;;6259924;22;20015;-82
2022/11/21 03:04:46;;;;;;;27.95;15.27;;;;;;;;;;6261671;22;20011;-82
2022/11/21 03:07:12;;;;;;;29.67;13.95;;;;;;;;;;6289077;22;20450;-82
2022/11/21 03:09:38;;;;;;;33.10;15.48;;;;;;;;;;6287421;22;19995;-81
2022/11/21 03:12:08;;;;;;;27.83;15.52;;;;;;;;;;6260320;22;20436;-81
2022/11/21 03:14:35;;;;;;;31.02;15.20;;;;;;;;;;6260137;22;20000;-82
2022/11/21 03:17:01;;;;;;;26.77;15.15;;;;;;;;;;6261311;22;20063;-81
2022/11/21 03:19:27;;;;;;;31.88;15.90;;;;;;;;;;6288352;22;20015;-82
2022/11/21 03:21:53;;;;;;;30.88;15.95;;;;;;;;;;6288674;22;20010;-82
2022/11/21 03:24:19;;;;;;;26.60;15.05;;;;;;;;;;6287346;22;20004;-82
2022/11/21 03:26:45;;;;;;;30.15;15.70;;;;;;;;;;6259657;22;20007;-83
2022/11/21 03:29:11;;;;;;;25.70;14.20;;;;;;;;;;6287886;22;20010;-82
2022/11/21 03:31:37;;;;;;;29.73;14.85;;;;;;;;;;6259797;22;20027;-82
2022/11/21 03:34:03;;;;;;;30.00;14.90;;;;;;;;;;6286108;22;20071;-81
2022/11/21 03:36:29;;;;;;;28.58;13.93;;;;;;;;;;6287531;22;20000;-81
2022/11/21 03:38:56;;;;;;;29.88;16.02;;;;;;;;;;6287445;22;20022;-83
2022/11/21 03:41:28;;;;;;;30.98;17.13;;;;;;;;;;6260481;22;20000;-82
2022/11/21 03:44:04;;;;;;;36.15;17.13;;;;;;;;;;6258758;22;20494;-83
2022/11/21 03:46:31;;;;;;;31.02;16.73;;;;;;;;;;6259562;22;20007;-82
2022/11/21 03:48:58;;;;;;;29.55;15.40;;;;;;;;;;6288453;22;20034;-82
2022/11/21 03:51:24;;;;;;;31.15;16.17;;;;;;;;;;6287687;22;20000;-80
2022/11/21 03:53:50;;;;;;;31.58;16.38;;;;;;;;;;6259163;22;20000;-82
2022/11/21 03:56:16;;;;;;;31.45;18.17;;;;;;;;;;6259920;22;20075;-82
2022/11/21 03:58:42;;;;;;;33.50;17.75;;;;;;;;;;6287537;22;19999;-82
2022/11/21 04:01:09;;;;;;;29.70;17.20;;;;;;;;;;6258582;22;20149;-82
2022/11/21 04:03:35;;;;;;;30.42;16.35;;;;;;;;;;6258685;22;20004;-83
2022/11/21 04:06:01;;;;;;;27.58;16.88;;;;;;;;;;6258211;22;20034;-82
2022/11/21 04:08:28;;;;;;;31.20;16.67;;;;;;;;;;6259265;22;20011;-82
2022/11/21 04:10:54;;;;;;;30.13;16.08;;;;;;;;;;6259123;22;20023;-82
2022/11/21 04:13:21;;;;;;;33.30;18.52;;;;;;;;;;6285265;22;20003;-81
2022/11/21 04:15:47;;;;;;;32.88;16.48;;;;;;;;;;6258875;22;20003;-82
2022/11/21 04:18:13;;;;;;;31.90;17.30;;;;;;;;;;6285202;22;20004;-81
2022/11/21 04:20:39;;;;;;;28.65;16.73;;;;;;;;;;6284080;22;19995;-82
2022/11/21 04:23:05;;;;;;;28.50;16.60;;;;;;;;;;6284006;22;20046;-82
2022/11/21 04:25:31;;;;;;;31.83;17.88;;;;;;;;;;6283242;22;20099;-81
2022/11/21 04:27:58;;;;;;;33.60;17.58;;;;;;;;;;6256849;22;20066;-81
2022/11/21 04:30:24;;;;;;;36.10;18.65;;;;;;;;;;6283853;22;20336;-82
2022/11/21 04:32:50;;;;;;;30.45;16.98;;;;;;;;;;6284719;22;20003;-83
2022/11/21 04:35:17;;;;;;;31.00;16.83;;;;;;;;;;6258095;22;20034;-81
2022/11/21 04:37:43;;;;;;;32.25;18.75;;;;;;;;;;6257863;22;20063;-82
2022/11/21 04:40:09;;;;;;;30.75;16.52;;;;;;;;;;6257670;22;20490;-82
2022/11/21 04:42:35;;;;;;;29.33;15.63;;;;;;;;;;6258155;22;20011;-82
2022/11/21 04:45:01;;;;;;;30.02;16.08;;;;;;;;;;6285451;22;20008;-82
2022/11/21 04:47:27;;;;;;;27.67;16.50;;;;;;;;;;6284781;22;20065;-81
2022/11/21 04:49:53;;;;;;;32.67;16.75;;;;;;;;;;6283831;22;20417;-80
2022/11/21 04:52:19;;;;;;;28.38;17.77;;;;;;;;;;6255290;22;20003;-83
2022/11/21 04:54:46;;;;;;;34.20;17.08;;;;;;;;;;6257340;22;20349;-82
2022/11/21 04:57:13;;;;;;;30.58;18.90;;;;;;;;;;6286554;22;20000;-83
2022/11/21 04:59:39;;;;;;;34.38;18.83;;;;;;;;;;6286316;22;20010;-83
2022/11/21 05:02:05;;;;;;;32.05;18.35;;;;;;;;;;6259207;22;20007;-83
2022/11/21 05:04:32;;;;;;;33.55;18.17;;;;;;;;;;6259872;22;20079;-81
2022/11/21 05:06:58;;;;;;;33.83;17.55;;;;;;;;;;6282809;22;20015;-80
2022/11/21 05:09:24;;;;;;;37.90;19.02;;;;;;;;;;6284631;22;19996;-84
2022/11/21 05:14:35;;;;;;;37.33;19.00;;;;;;;;;;6283687;22;20038;-85
2022/11/21 05:17:01;;;;;;;35.38;19.17;;;;;;;;;;6280774;22;20000;-84
2022/11/21 05:19:27;;;;;;;32.35;18.10;;;;;;;;;;6280408;22;20367;-83
2022/11/21 05:21:53;;;;;;;36.67;19.65;;;;;;;;;;6281831;22;20011;-84
2022/11/21 05:24:19;;;;;;;38.55;19.60;;;;;;;;;;6256353;22;20493;-84
2022/11/21 05:26:45;;;;;;;36.83;20.65;;;;;;;;;;6283408;22;20429;-85
2022/11/21 05:29:11;;;;;;;36.22;20.50;;;;;;;;;;6256308;22;20325;-84
2022/11/21 05:31:38;;;;;;;36.70;19.17;;;;;;;;;;6256626;22;20072;-85
2022/11/21 05:34:04;;;;;;;38.20;21.33;;;;;;;;;;6255451;22;20004;-85
2022/11/21 05:36:30;;;;;;;33.20;19.25;;;;;;;;;;6256628;22;20063;-86
2022/11/21 05:38:56;;;;;;;35.25;19.30;;;;;;;;;;6285028;22;19997;-85
2022/11/21 05:41:22;;;;;;;35.75;19.40;;;;;;;;;;6283182;22;20014;-85
2022/11/21 05:43:49;;;;;;;38.72;19.63;;;;;;;;;;6283228;22;20004;-85
2022/11/21 05:46:22;;;;;;;39.10;21.85;;;;;;;;;;6256099;22;20026;-85
2022/11/21 05:48:48;;;;;;;32.42;17.08;;;;;;;;;;6254907;22;20004;-85
2022/11/21 05:51:15;;;;;;;32.15;18.48;;;;;;;;;;6282057;22;20076;-85
2022/11/21 05:53:41;;;;;;;29.27;16.60;;;;;;;;;;6253064;22;20000;-86
2022/11/21 05:56:09;;;;;;;29.52;18.52;;;;;;;;;;6282189;22;20000;-85
2022/11/21 05:58:35;;;;;;;27.15;15.65;;;;;;;;;;6255832;22;20336;-85
2022/11/21 06:01:02;;;;;;;28.60;15.68;;;;;;;;;;6282228;22;20000;-85
2022/11/21 06:03:31;;;;;;;25.27;15.70;;;;;;;;;;6282368;22;20003;-86
2022/11/21 06:06:05;;;;;;;23.75;14.80;;;;;;;;;;6256012;22;19999;-85
2022/11/21 06:08:32;;;;;;;24.13;14.10;;;;;;;;;;6282941;22;20011;-85
2022/11/21 06:10:58;;;;;;;25.52;14.65;;;;;;;;;;6282745;22;19999;-86
2022/11/21 06:13:24;;;;;;;23.40;13.43;;;;;;;;;;6254951;22;20004;-85
2022/11/21 06:15:51;;;;;;;22.63;13.75;;;;;;;;;;6282304;22;20000;-86
2022/11/21 06:18:17;;;;;;;22.65;13.93;;;;;;;;;;6282796;22;20020;-85
2022/11/21 06:20:44;;;;;;;24.95;15.68;;;;;;;;;;6282506;22;20478;-86
2022/11/21 06:23:10;;;;;;;22.60;14.65;;;;;;;;;;6282289;22;20046;-84
2022/11/21 06:25:36;;;;;;;23.85;13.60;;;;;;;;;;6255987;22;20000;-86
2022/11/21 06:28:02;;;;;;;21.90;12.43;;;;;;;;;;6281879;22;20035;-85
2022/11/21 06:30:28;;;;;;;21.15;13.13;;;;;;;;;;6254799;22;20000;-86
2022/11/21 06:32:54;;;;;;;19.20;12.68;;;;;;;;;;6279790;22;20363;-86
2022/11/21 06:35:20;;;;;;;22.42;11.90;;;;;;;;;;6279978;22;20000;-86
2022/11/21 06:37:46;;;;;;;20.77;10.73;;;;;;;;;;6281691;22;20007;-84
2022/11/21 06:40:12;;;;;;;20.98;11.68;;;;;;;;;;6281720;22;19999;-85
2022/11/21 06:42:38;;;;;;;19.38;11.02;;;;;;;;;;6254246;22;20323;-84
2022/11/21 06:45:05;;;;;;;19.10;11.88;;;;;;;;;;6249460;23;20551;-85
2022/11/21 06:47:34;;;;;;;18.00;11.43;;;;;;;;;;6249222;23;20040;-86
2022/11/21 06:50:00;;;;;;;20.45;12.93;;;;;;;;;;6250010;23;19997;-86
2022/11/21 06:52:26;;;;;;;19.42;11.40;;;;;;;;;;6250665;23;20000;-86
2022/11/21 06:54:53;;;;;;;18.40;11.40;;;;;;;;;;6251172;23;20340;-85
2022/11/21 06:57:19;;;;;;;16.85;10.90;;;;;;;;;;6249051;23;20200;-86
2022/11/21 06:59:45;;;;;;;14.75;10.75;;;;;;;;;;6249467;23;20008;-85
2022/11/21 07:02:12;;;;;;;19.88;10.75;;;;;;;;;;6250544;23;20427;-86
2022/11/21 07:04:40;;;;;;;15.68;9.80;;;;;;;;;;6249412;23;20016;-86
2022/11/21 07:07:06;;;;;;;15.20;10.25;;;;;;;;;;6249272;23;20341;-86
2022/11/21 07:09:34;;;;;;;18.58;10.70;;;;;;;;;;6248982;23;20065;-85
2022/11/21 07:13:20;;;;;;;13.48;8.95;;;;;;;;;;6249715;23;20000;-85
2022/11/21 07:14:49;;;;;;;18.63;10.13;;;;;;;;;;6250492;23;20344;-86
2022/11/21 07:17:15;;;;;;;16.40;10.20;;;;;;;;;;6250548;23;20290;-85
2022/11/21 07:19:41;;;;;;;15.07;9.68;;;;;;;;;;6248574;23;20058;-86
2022/11/21 07:22:07;;;;;;;16.67;10.85;;;;;;;;;;6249595;23;20008;-85
2022/11/21 07:24:33;;;;;;;15.82;9.82;;;;;;;;;;6249863;23;20000;-85
2022/11/21 07:27:01;;;;;;;17.80;11.02;;;;;;;;;;6248112;23;20454;-85
2022/11/21 07:29:27;;;;;;;16.92;8.13;;;;;;;;;;6249556;23;20050;-85
2022/11/21 07:31:53;;;;;;;10.30;7.10;;;;;;;;;;6249343;23;19997;-85
2022/11/21 07:34:19;;;;;;;10.93;6.63;;;;;;;;;;6249288;23;20023;-86
2022/11/21 07:36:45;;;;;;;8.05;4.90;;;;;;;;;;6249825;23;20420;-85
2022/11/21 07:39:11;;;;;;;9.05;5.57;;;;;;;;;;6248747;23;20012;-85
2022/11/21 07:41:38;;;;;;;8.73;4.97;;;;;;;;;;6248529;23;20531;-86
2022/11/21 07:44:04;;;;;;;8.32;4.80;;;;;;;;;;6253054;22;20060;-86
2022/11/21 07:46:30;;;;;;;7.75;4.80;;;;;;;;;;6254161;22;20407;-85
2022/11/21 07:48:56;;;;;;;6.97;4.15;;;;;;;;;;6280990;22;20003;-88
2022/11/21 07:51:22;;;;;;;7.85;4.72;;;;;;;;;;6280168;22;20000;-84
2022/11/21 07:53:48;;;;;;;16.17;7.15;;;;;;;;;;6280640;22;20385;-83
2022/11/21 07:56:16;;;;;;;15.95;8.73;;;;;;;;;;6281152;22;20011;-84
2022/11/21 07:58:42;;;;;;;12.68;7.05;;;;;;;;;;6280966;22;20312;-83
2022/11/21 08:01:09;;;;;;;12.95;6.63;;;;;;;;;;6253550;22;20114;-85
2022/11/21 08:03:35;;;;;;;12.45;6.97;;;;;;;;;;6280538;22;20007;-86
2022/11/21 08:06:04;;;;;;;11.48;6.28;;;;;;;;;;6254496;22;20004;-84
2022/11/21 08:08:31;;;;;;;10.93;6.63;;;;;;;;;;6253444;22;19999;-85
2022/11/21 08:10:57;;;;;;;9.98;6.38;;;;;;;;;;6253179;22;20046;-84
2022/11/21 08:13:23;;;;;;;13.40;8.02;;;;;;;;;;6256033;22;20042;-85
2022/11/21 08:15:49;;;;;;;12.63;7.38;;;;;;;;;;6252715;22;20000;-85
2022/11/21 08:18:19;;;;;;;13.35;7.63;;;;;;;;;;6276838;22;19999;-84
2022/11/21 08:20:46;;;;;;;14.20;9.68;;;;;;;;;;6277826;22;20007;-83
2022/11/21 08:23:12;;;;;;;17.05;8.98;;;;;;;;;;6252332;22;20503;-84
2022/11/21 08:25:38;;;;;;;16.95;10.35;;;;;;;;;;6279690;22;20055;-85
2022/11/21 08:28:05;;;;;;;18.45;10.75;;;;;;;;;;6253454;22;20004;-85
2022/11/21 08:30:31;;;;;;;14.40;9.23;;;;;;;;;;6253727;22;20000;-84
2022/11/21 08:32:58;;;;;;;14.13;8.77;;;;;;;;;;6281188;22;20394;-85
2022/11/21 08:35:24;;;;;;;14.98;8.60;;;;;;;;;;6254815;22;20332;-85
2022/11/21 08:37:54;;;;;;;15.00;7.90;;;;;;;;;;6284427;22;20000;-85
2022/11/21 08:40:20;;;;;;;12.73;6.88;;;;;;;;;;6282264;22;20077;-84
2022/11/21 08:42:46;;;;;;;8.13;5.00;;;;;;;;;;6280713;22;20000;-85
2022/11/21 08:45:12;;;;;;;8.10;4.65;;;;;;;;;;6281740;22;20032;-85
2022/11/21 08:47:38;;;;;;;5.00;2.90;;;;;;;;;;6254670;22;20072;-85
2022/11/21 08:50:04;;;;;;;5.03;2.60;;;;;;;;;;6281172;22;20050;-85
2022/11/21 08:52:30;;;;;;;4.95;2.75;;;;;;;;;;6254394;22;20054;-85
2022/11/21 08:54:56;;;;;;;4.95;2.50;;;;;;;;;;6281509;22;20000;-85
2022/11/21 08:57:22;;;;;;;6.15;2.55;;;;;;;;;;6281387;22;20007;-85
2022/11/21 08:59:48;;;;;;;6.57;3.03;;;;;;;;;;6253589;22;20004;-84
2022/11/21 09:02:14;;;;;;;6.63;2.83;;;;;;;;;;6256793;22;20436;-86
2022/11/21 09:04:40;;;;;;;6.07;2.75;;;;;;;;;;6255492;22;20053;-85
2022/11/21 09:07:06;;;;;;;5.95;3.40;;;;;;;;;;6283309;22;20332;-85
2022/11/21 09:09:33;;;;;;;7.53;2.63;;;;;;;;;;6283196;22;20011;-85
2022/11/21 09:12:00;;;;;;;7.95;4.47;;;;;;;;;;6283274;22;20006;-85
2022/11/21 09:19:56;;;;;;;6.53;2.60;;;;;;;;;;6282292;22;20034;-85
2022/11/21 09:22:24;;;;;;;5.47;2.78;;;;;;;;;;6283013;22;20000;-84
2022/11/21 09:24:50;;;;;;;6.15;2.97;;;;;;;;;;6281846;22;20015;-85
2022/11/21 09:27:16;;;;;;;5.30;2.85;;;;;;;;;;6255774;22;20014;-84
2022/11/21 09:29:42;;;;;;;6.55;3.40;;;;;;;;;;6282581;22;20003;-85
2022/11/21 09:32:08;;;;;;;5.95;3.10;;;;;;;;;;6282050;22;20042;-84
2022/11/21 09:34:36;;;;;;;5.85;2.80;;;;;;;;;;6282016;22;20274;-84
2022/11/21 09:37:02;;;;;;;12.43;3.80;;;;;;;;;;6254859;22;20051;-84
2022/11/21 09:39:28;;;;;;;5.63;2.80;;;;;;;;;;6281954;22;20361;-84
2022/11/21 09:42:13;;;;;;;7.80;5.93;;;;;;;;;;6282508;22;20023;-84
2022/11/21 09:44:45;;;;;;;8.27;3.00;;;;;;;;;;6282083;22;20011;-84
2022/11/21 09:47:23;;;;;;;6.67;2.60;;;;;;;;;;6282283;22;20034;-84
2022/11/21 09:49:53;;;;;;;3.30;1.00;;;;;;;;;;6255514;22;19999;-84
2022/11/21 09:52:20;;;;;;;4.38;1.10;;;;;;;;;;6281775;22;20368;-84
2022/11/21 09:54:49;;;;;;;3.22;1.10;;;;;;;;;;6282376;22;20082;-84
2022/11/21 09:57:17;;;;;;;3.20;1.00;;;;;;;;;;6281210;22;20007;-84
2022/11/21 09:59:44;;;;;;;7.13;1.58;;;;;;;;;;6282740;22;20000;-83
2022/11/21 10:02:15;;;;;;;3.55;1.33;;;;;;;;;;6254879;22;20000;-85
2022/11/21 10:04:41;;;;;;;4.05;0.80;;;;;;;;;;6281985;22;20026;-85
2022/11/21 10:07:11;;;;;;;3.22;1.00;;;;;;;;;;6282900;22;20058;-85
2022/11/21 10:09:49;;;;;;;4.38;1.10;;;;;;;;;;6255957;22;20008;-84
2022/11/21 10:12:37;;;;;;;2.25;1.05;;;;;;;;;;6254722;22;19992;-84
2022/11/21 10:15:21;;;;;;;2.35;0.93;;;;;;;;;;6282407;22;20003;-84
2022/11/21 10:18:02;;;;;;;3.42;1.00;;;;;;;;;;6282511;22;20030;-84
2022/11/21 10:20:34;;;;;;;3.55;1.13;;;;;;;;;;6255484;22;20003;-85
2022/11/21 10:23:00;;;;;;;3.33;0.98;;;;;;;;;;6282545;22;20006;-84
2022/11/21 10:25:29;;;;;;;5.95;1.35;;;;;;;;;;6282623;22;20027;-85
2022/11/21 10:27:55;;;;;;;2.45;1.13;;;;;;;;;;6281999;22;20003;-84
2022/11/21 10:30:21;;;;;;;2.95;1.25;;;;;;;;;;6254459;22;19995;-85
2022/11/21 10:32:49;;;;;;;1.67;0.80;;;;;;;;;;6253956;22;19999;-85
2022/11/21 10:35:23;;;;;;;2.75;0.80;;;;;;;;;;6255487;22;20032;-84
2022/11/21 10:37:51;;;;;;;4.35;1.30;;;;;;;;;;6254158;22;20057;-84
2022/11/21 10:40:23;;;;;;;6.13;1.60;;;;;;;;;;6281033;22;20014;-83
2022/11/21 10:42:58;;;;;;;3.03;0.90;;;;;;;;;;6254033;22;20003;-84
2022/11/21 10:45:24;;;;;;;3.35;1.00;;;;;;;;;;6254514;22;20069;-85
2022/11/21 10:47:51;;;;;;;2.60;1.13;;;;;;;;;;6282464;22;20440;-84
2022/11/21 10:50:43;;;;;;;4.95;1.10;;;;;;;;;;6288126;22;19996;-84
2022/11/21 10:55:59;;;;;;;3.45;1.15;;;;;;;;;;6282255;22;20011;-85
2022/11/21 10:58:33;;;;;;;4.13;1.23;;;;;;;;;;6281607;22;20487;-85
2022/11/21 11:00:59;;;;;;;3.60;0.80;;;;;;;;;;6282224;22;19999;-84
2022/11/21 11:03:25;;;;;;;2.63;0.80;;;;;;;;;;6280025;22;20079;-86
2022/11/21 11:05:59;;;;;;;3.35;1.40;;;;;;;;;;6254110;22;20000;-86
2022/11/21 11:08:26;;;;;;;3.70;1.30;;;;;;;;;;6254444;22;19999;-84
2022/11/21 11:11:07;;;;;;;5.20;1.50;;;;;;;;;;6255224;22;20008;-84
2022/11/21 11:13:35;;;;;;;4.88;0.88;;;;;;;;;;6281691;22;20054;-85
2022/11/21 11:16:04;;;;;;;2.95;1.05;;;;;;;;;;6281990;22;20026;-83
2022/11/21 11:18:33;;;;;;;1.88;0.70;;;;;;;;;;6282791;22;20529;-85
2022/11/21 11:21:13;;;;;;;1.85;0.60;;;;;;;;;;6254393;22;20007;-85
2022/11/21 11:23:40;;;;;;;5.85;1.15;;;;;;;;;;6253392;22;20000;-85
2022/11/21 11:26:18;;;;;;;2.25;0.80;;;;;;;;;;6253726;22;20090;-83
2022/11/21 11:28:44;;;;;;;2.50;1.00;;;;;;;;;;6254135;22;20498;-84
2022/11/21 11:31:10;;;;;;;4.05;1.00;;;;;;;;;;6254436;22;20192;-84
2022/11/21 11:33:37;;;;;;;4.13;1.13;;;;;;;;;;6254031;22;20000;-84
2022/11/21 11:36:03;;;;;;;5.53;1.33;;;;;;;;;;6282560;22;19996;-84
2022/11/21 11:38:30;;;;;;;3.45;0.90;;;;;;;;;;6283775;22;20034;-85
2022/11/21 11:41:00;;;;;;;4.57;1.10;;;;;;;;;;6282687;22;19996;-86
2022/11/21 11:49:19;;;;;;;2.67;0.70;;;;;;;;;;6282535;22;20057;-84
2022/11/21 11:51:52;;;;;;;2.15;0.77;;;;;;;;;;6255015;22;19996;-84
2022/11/21 11:54:20;;;;;;;2.33;0.75;;;;;;;;;;6283611;22;20079;-86
2022/11/21 11:56:46;;;;;;;4.50;0.98;;;;;;;;;;6255799;22;20451;-84
2022/11/21 11:59:16;;;;;;;3.03;0.80;;;;;;;;;;6282566;22;20000;-84
2022/11/21 12:01:49;;;;;;;2.17;0.70;;;;;;;;;;6254908;22;20343;-85
2022/11/21 12:04:25;;;;;;;4.22;0.75;;;;;;;;;;6283403;22;19999;-84
2022/11/21 12:07:07;;;;;;;2.13;0.80;;;;;;;;;;6281498;22;20434;-85
2022/11/21 12:09:44;;;;;;;2.78;0.60;;;;;;;;;;6254959;22;20000;-85
2022/11/21 12:12:23;;;;;;;1.15;0.65;;;;;;;;;;6254439;22;20515;-83
2022/11/21 12:18:06;;;;;;;3.03;1.05;;;;;;;;;;6282351;22;20006;-85
2022/11/21 12:20:38;;;;;;;1.65;0.80;;;;;;;;;;6254608;22;20428;-82
2022/11/21 12:23:06;;;;;;;3.53;1.00;;;;;;;;;;6253039;22;20014;-82
2022/11/21 12:25:48;;;;;;;4.28;1.10;;;;;;;;;;6255082;22;20011;-82
2022/11/21 12:28:21;;;;;;;3.25;0.98;;;;;;;;;;6282255;22;20332;-85
2022/11/21 12:31:02;;;;;;;2.20;1.05;;;;;;;;;;6282102;22;19999;-85
2022/11/21 12:33:31;;;;;;;11.80;7.95;;;;;;;;;;6254373;22;20064;-84
2022/11/21 12:36:04;;;;;;;3.97;1.48;;;;;;;;;;6281695;22;20007;-85
2022/11/21 12:38:33;;;;;;;4.78;1.90;;;;;;;;;;6252739;22;20086;-86
2022/11/21 12:42:47;;;;;;;7.60;2.67;;;;;;;;;;6280910;22;20004;-85
2022/11/21 12:44:11;;;;;;;7.03;2.28;;;;;;;;;;6282824;22;20007;-82
2022/11/21 12:46:56;;;;;;;4.00;0.95;;;;;;;;;;6253776;22;20089;-85
2022/11/21 12:55:28;;;;;;;3.58;1.90;;;;;;;;;;6195745;22;20335;-85
2022/11/21 12:58:12;;;;;;;3.67;1.40;;;;;;;;;;6279207;22;20015;-84
2022/11/21 13:00:54;;;;;;;3.70;1.40;;;;;;;;;;6252031;22;20085;-84
2022/11/21 13:03:41;;;;;;;5.32;1.45;;;;;;;;;;6253478;22;20039;-84
2022/11/21 13:06:13;;;;;;;3.28;1.20;;;;;;;;;;6253208;22;20098;-83
2022/11/21 13:08:39;;;;;;;4.95;1.70;;;;;;;;;;6280464;22;20048;-83
2022/11/21 13:14:06;;;;;;;4.95;1.67;;;;;;;;;;6279987;22;20058;-86
2022/11/21 13:16:36;;;;;;;2.80;1.00;;;;;;;;;;6279796;22;20054;-82
2022/11/21 13:19:14;;;;;;;4.05;1.30;;;;;;;;;;6253965;22;20057;-82
2022/11/21 13:21:41;;;;;;;6.10;2.20;;;;;;;;;;6280467;22;20498;-82
2022/11/21 13:24:08;;;;;;;4.82;1.73;;;;;;;;;;6279860;22;20462;-84
2022/11/21 13:26:37;;;;;;;4.15;2.47;;;;;;;;;;6253673;22;19999;-85
2022/11/21 13:29:07;;;;;;;3.70;1.20;;;;;;;;;;6253281;22;20007;-83
2022/11/21 13:31:34;;;;;;;4.35;1.98;;;;;;;;;;6279916;22;19996;-84
2022/11/21 13:34:01;;;;;;;3.40;1.60;;;;;;;;;;6280131;22;20130;-85
2022/11/21 13:36:32;;;;;;;3.50;1.40;;;;;;;;;;6279766;22;20004;-83
2022/11/21 13:38:59;;;;;;;2.65;1.10;;;;;;;;;;6252169;22;20008;-84
2022/11/21 13:44:33;;;;;;;2.92;1.20;;;;;;;;;;6279523;22;20081;-84
2022/11/21 13:47:08;;;;;;;2.92;1.00;;;;;;;;;;6253292;22;20034;-86
2022/11/21 13:49:43;;;;;;;3.40;1.23;;;;;;;;;;6282177;22;20022;-85
2022/11/21 13:52:28;;;;;;;3.42;1.48;;;;;;;;;;6283032;22;20087;-84
2022/11/21 13:54:54;;;;;;;2.83;1.25;;;;;;;;;;6255209;22;19996;-85
2022/11/21 13:57:29;;;;;;;3.15;1.33;;;;;;;;;;6282505;22;20000;-82
2022/11/21 14:00:10;;;;;;;4.00;1.40;;;;;;;;;;6281989;22;20006;-85
2022/11/21 14:02:55;;;;;;;5.93;1.85;;;;;;;;;;6281451;22;20050;-82
2022/11/21 14:05:27;;;;;;;4.65;2.03;;;;;;;;;;6281659;22;20022;-83
2022/11/21 14:07:53;;;;;;;6.07;3.43;;;;;;;;;;6281977;22;20508;-83
2022/11/21 14:10:30;;;;;;;5.25;2.08;;;;;;;;;;6282573;22;19996;-83
2022/11/21 14:12:56;;;;;;;5.70;1.92;;;;;;;;;;6255288;22;20061;-83
2022/11/21 14:15:40;;;;;;;8.95;7.03;;;;;;;;;;6254327;22;19996;-83
2022/11/21 14:18:14;;;;;;;3.80;1.50;;;;;;;;;;6282232;22;20011;-84
2022/11/21 14:20:56;;;;;;;9.65;5.03;;;;;;;;;;6254451;22;20007;-85
2022/11/21 14:23:23;;;;;;;10.10;5.80;;;;;;;;;;6282891;22;20057;-82
2022/11/21 14:25:59;;;;;;;12.68;7.15;;;;;;;;;;6253986;22;20003;-83
2022/11/21 14:28:32;;;;;;;9.38;3.90;;;;;;;;;;6281430;22;20608;-83
2022/11/21 14:31:08;;;;;;;8.25;3.72;;;;;;;;;;6254300;22;20010;-83
2022/11/21 14:33:41;;;;;;;10.10;5.78;;;;;;;;;;6254172;22;20011;-83
2022/11/21 14:36:21;;;;;;;7.45;4.18;;;;;;;;;;6253061;22;20151;-82
2022/11/21 14:38:51;;;;;;;8.80;3.20;;;;;;;;;;6289183;22;20104;-83
2022/11/21 14:41:24;;;;;;;6.65;3.22;;;;;;;;;;6283837;22;20000;-82
2022/11/21 14:44:10;;;;;;;6.35;3.08;;;;;;;;;;6282692;22;20446;-84
2022/11/21 14:46:40;;;;;;;3.58;1.35;;;;;;;;;;6228398;22;20034;-84
2022/11/21 14:49:15;;;;;;;5.40;2.60;;;;;;;;;;6252113;22;20079;-82
2022/11/21 14:51:43;;;;;;;8.45;3.55;;;;;;;;;;6282255;22;20008;-83
2022/11/21 14:54:13;;;;;;;8.32;4.60;;;;;;;;;;6253129;22;20493;-83
2022/11/21 14:56:39;;;;;;;5.85;2.78;;;;;;;;;;6280971;22;20058;-85
2022/11/21 14:59:11;;;;;;;5.95;2.85;;;;;;;;;;6255625;22;20004;-84
2022/11/21 15:01:37;;;;;;;4.60;1.67;;;;;;;;;;6281904;22;19999;-83
2022/11/21 15:04:05;;;;;;;5.15;2.00;;;;;;;;;;6280155;22;20045;-83
2022/11/21 15:06:32;;;;;;;5.00;1.73;;;;;;;;;;6252294;22;20004;-83
2022/11/21 15:09:01;;;;;;;3.78;1.58;;;;;;;;;;6253674;22;20007;-85